createdAt,value
2024-01-16T00:00:31.932Z,0.23
2024-01-16T00:02:58.845Z,0.00
2024-01-16T00:05:25.587Z,0.00
2024-01-16T00:07:52.532Z,0.20
2024-01-16T00:10:19.163Z,0.00
2024-01-16T00:12:45.936Z,0.20
2024-01-16T00:15:12.635Z,0.00
2024-01-16T00:17:39.541Z,0.00
2024-01-16T00:20:06.839Z,0.10
2024-01-16T00:22:33.538Z,0.10
2024-01-16T00:25:00.370Z,0.00
2024-01-16T00:27:27.124Z,0.13
2024-01-16T00:29:53.844Z,0.03
2024-01-16T00:32:20.648Z,0.00
2024-01-16T00:34:47.392Z,0.10
2024-01-16T00:37:14.294Z,0.30
2024-01-16T00:39:41.043Z,0.00
2024-01-16T00:42:07.779Z,0.00
2024-01-16T00:44:35.801Z,0.00
2024-01-16T00:47:02.878Z,0.00
2024-01-16T00:49:30.291Z,0.00
2024-01-16T00:51:57.125Z,0.00
2024-01-16T00:54:23.832Z,0.00
2024-01-16T00:56:50.640Z,0.00
2024-01-16T00:59:17.509Z,0.00
2024-01-16T01:01:44.310Z,0.00
2024-01-16T01:04:11.000Z,0.00
2024-01-16T01:06:37.779Z,0.00
2024-01-16T01:09:04.411Z,0.00
2024-01-16T01:11:31.141Z,0.00
2024-01-16T01:13:57.982Z,0.00
2024-01-16T01:16:24.758Z,0.00
2024-01-16T01:18:51.572Z,0.10
2024-01-16T01:21:18.285Z,0.00
2024-01-16T01:23:45.085Z,0.10
2024-01-16T01:26:14.740Z,0.00
2024-01-16T01:28:42.551Z,0.00
2024-01-16T01:31:13.611Z,0.00
2024-01-16T01:33:43.724Z,0.00
2024-01-16T01:36:11.018Z,0.00
2024-01-16T01:38:37.769Z,0.00
2024-01-16T01:41:07.371Z,0.07
2024-01-16T01:43:35.393Z,0.00
2024-01-16T01:46:18.154Z,0.00
2024-01-16T01:48:46.305Z,0.00
2024-01-16T01:51:19.683Z,0.00
2024-01-16T01:53:48.023Z,0.00
2024-01-16T01:56:20.518Z,0.10
2024-01-16T01:58:48.923Z,0.43
2024-01-16T02:01:17.320Z,0.00
2024-01-16T02:03:45.641Z,0.00
2024-01-16T02:06:13.509Z,0.20
2024-01-16T02:08:44.087Z,0.00
2024-01-16T02:11:11.038Z,0.00
2024-01-16T02:13:38.229Z,0.00
2024-01-16T02:16:06.781Z,0.27
2024-01-16T02:18:33.630Z,0.00
2024-01-16T02:21:07.201Z,0.00
2024-01-16T02:23:34.742Z,0.10
2024-01-16T02:26:03.064Z,0.00
2024-01-16T02:28:30.291Z,0.00
2024-01-16T02:30:57.630Z,0.30
2024-01-16T02:33:24.587Z,0.03
2024-01-16T02:35:51.387Z,0.00
2024-01-16T02:38:18.114Z,0.20
2024-01-16T02:40:44.801Z,0.00
2024-01-16T02:43:11.630Z,0.00
2024-01-16T02:45:38.329Z,0.30
2024-01-16T02:48:05.396Z,0.03
2024-01-16T02:50:32.219Z,0.00
2024-01-16T02:52:58.914Z,0.00
2024-01-16T02:55:25.645Z,0.17
2024-01-16T02:57:52.442Z,0.00
2024-01-16T03:00:19.210Z,0.10
2024-01-16T03:02:46.129Z,0.00
2024-01-16T03:05:12.986Z,0.00
2024-01-16T03:07:39.734Z,0.00
2024-01-16T03:10:06.638Z,0.93
2024-01-16T03:12:33.436Z,0.00
2024-01-16T03:15:00.220Z,0.00
2024-01-16T03:17:26.944Z,0.00
2024-01-16T03:19:53.606Z,0.00
2024-01-16T03:22:20.336Z,0.00
2024-01-16T03:24:47.080Z,0.00
2024-01-16T03:27:14.324Z,0.00
2024-01-16T03:29:41.081Z,0.00
2024-01-16T03:32:07.908Z,0.00
2024-01-16T03:34:35.664Z,0.00
2024-01-16T03:37:02.370Z,0.40
2024-01-16T03:39:29.154Z,0.20
2024-01-16T03:41:55.837Z,0.00
2024-01-16T03:44:22.594Z,0.20
2024-01-16T03:46:49.282Z,0.00
2024-01-16T03:49:16.010Z,0.00
2024-01-16T03:51:47.476Z,0.00
2024-01-16T03:54:14.399Z,0.10
2024-01-16T03:56:41.301Z,0.00
2024-01-16T03:59:08.028Z,0.23
2024-01-16T04:01:37.923Z,0.00
2024-01-16T04:04:07.501Z,0.00
2024-01-16T04:06:34.788Z,0.23
2024-01-16T04:09:01.886Z,0.00
2024-01-16T04:11:28.646Z,0.00
2024-01-16T04:13:55.330Z,0.00
2024-01-16T04:16:22.069Z,0.00
2024-01-16T04:18:49.045Z,0.00
2024-01-16T04:21:18.717Z,0.20
2024-01-16T04:23:47.480Z,0.00
2024-01-16T04:26:14.314Z,0.37
2024-01-16T04:28:41.058Z,0.00
2024-01-16T04:31:07.965Z,0.00
2024-01-16T04:33:35.125Z,0.00
2024-01-16T04:36:01.886Z,0.10
2024-01-16T04:38:28.578Z,0.00
2024-01-16T04:40:55.322Z,0.00
2024-01-16T04:43:21.952Z,0.57
2024-01-16T04:45:49.266Z,0.00
2024-01-16T04:48:16.196Z,0.40
2024-01-16T04:50:42.965Z,0.00
2024-01-16T04:53:09.656Z,0.47
2024-01-16T04:55:36.366Z,0.00
2024-01-16T04:58:04.024Z,0.00
2024-01-16T05:00:30.698Z,0.00
2024-01-16T05:02:57.547Z,0.20
2024-01-16T05:05:26.865Z,0.00
2024-01-16T05:07:55.608Z,0.20
2024-01-16T05:10:22.329Z,0.00
2024-01-16T05:12:48.982Z,0.00
2024-01-16T05:15:15.948Z,0.10
2024-01-16T05:17:42.800Z,0.00
2024-01-16T05:20:11.267Z,0.00
2024-01-16T05:22:39.992Z,0.50
2024-01-16T05:25:08.192Z,0.00
2024-01-16T05:27:35.361Z,0.00
2024-01-16T05:30:02.373Z,0.00
2024-01-16T05:32:29.230Z,0.00
2024-01-16T05:34:55.931Z,0.20
2024-01-16T05:37:22.560Z,0.00
2024-01-16T05:39:49.175Z,0.00
2024-01-16T05:42:16.713Z,0.07
2024-01-16T05:44:43.494Z,0.20
2024-01-16T05:47:10.322Z,0.10
2024-01-16T05:49:37.179Z,0.30
2024-01-16T05:52:03.965Z,0.00
2024-01-16T05:54:30.660Z,0.30
2024-01-16T05:56:57.404Z,0.00
2024-01-16T05:59:24.190Z,0.00
2024-01-16T06:01:50.826Z,0.00
2024-01-16T06:04:17.487Z,0.60
2024-01-16T06:06:46.516Z,0.00
2024-01-16T06:09:15.327Z,0.10
2024-01-16T06:11:42.342Z,0.40
2024-01-16T06:14:10.235Z,0.00
2024-01-16T06:16:38.154Z,0.20
2024-01-16T06:19:05.757Z,0.00
2024-01-16T06:21:32.611Z,0.00
2024-01-16T06:23:59.356Z,0.00
2024-01-16T06:26:26.137Z,0.00
2024-01-16T06:28:52.901Z,0.10
2024-01-16T06:31:19.655Z,0.00
2024-01-16T06:33:46.571Z,0.00
2024-01-16T06:36:13.792Z,0.10
2024-01-16T06:38:41.653Z,0.00
2024-01-16T06:41:08.666Z,0.13
2024-01-16T06:43:35.425Z,0.00
2024-01-16T06:46:02.239Z,0.50
2024-01-16T06:48:29.047Z,0.00
2024-01-16T06:50:55.837Z,0.00
2024-01-16T06:53:22.657Z,0.00
2024-01-16T06:55:49.951Z,0.10
2024-01-16T06:58:16.592Z,0.20
2024-01-16T07:00:43.448Z,0.20
2024-01-16T07:03:10.137Z,0.00
2024-01-16T07:05:36.966Z,0.20
2024-01-16T07:08:03.922Z,0.10
2024-01-16T07:10:30.618Z,0.00
2024-01-16T07:12:57.652Z,0.30
2024-01-16T07:15:24.370Z,0.00
2024-01-16T07:17:51.188Z,0.47
2024-01-16T07:20:18.045Z,0.40
2024-01-16T07:22:44.805Z,0.00
2024-01-16T07:25:11.452Z,0.00
2024-01-16T07:27:38.236Z,0.03
2024-01-16T07:30:08.617Z,0.00
2024-01-16T07:32:35.788Z,0.10
2024-01-16T07:35:04.129Z,0.00
2024-01-16T07:37:31.003Z,0.30
2024-01-16T07:39:57.712Z,0.47
2024-01-16T07:42:24.361Z,0.43
2024-01-16T07:44:53.191Z,0.00
2024-01-16T07:47:20.165Z,0.00
2024-01-16T07:49:46.835Z,0.20
2024-01-16T07:52:13.546Z,0.00
2024-01-16T07:54:40.287Z,0.00
2024-01-16T07:57:07.445Z,0.03
2024-01-16T07:59:34.279Z,0.40
2024-01-16T08:02:01.066Z,0.00
2024-01-16T08:04:27.694Z,0.00
2024-01-16T08:06:54.437Z,0.17
2024-01-16T08:09:21.401Z,0.20
2024-01-16T08:11:48.517Z,0.27
2024-01-16T08:14:15.301Z,0.20
2024-01-16T08:16:41.980Z,0.13
2024-01-16T08:19:08.862Z,0.47
2024-01-16T08:21:35.704Z,0.50
2024-01-16T08:24:02.348Z,0.00
2024-01-16T08:26:29.604Z,1.03
2024-01-16T08:28:56.315Z,0.00
2024-01-16T08:31:22.941Z,0.20
2024-01-16T08:33:51.480Z,0.27
2024-01-16T08:36:20.236Z,0.10
2024-01-16T08:38:47.145Z,0.70
2024-01-16T08:41:14.414Z,0.17
2024-01-16T08:43:41.490Z,0.10
2024-01-16T08:46:08.372Z,0.00
2024-01-16T08:48:35.226Z,0.47
2024-01-16T08:51:04.701Z,0.10
2024-01-16T08:53:32.030Z,0.23
2024-01-16T08:55:58.861Z,0.40
2024-01-16T08:58:25.617Z,0.20
2024-01-16T09:00:52.313Z,0.37
2024-01-16T09:03:19.361Z,0.10
2024-01-16T09:05:46.317Z,0.00
2024-01-16T09:08:14.060Z,0.13
2024-01-16T09:10:40.972Z,0.27
2024-01-16T09:13:08.195Z,0.37
2024-01-16T09:15:35.524Z,0.13
2024-01-16T09:18:02.801Z,0.10
2024-01-16T09:20:29.702Z,1.17
2024-01-16T09:22:56.683Z,0.10
2024-01-16T09:25:25.837Z,0.10
2024-01-16T09:27:52.566Z,0.63
2024-01-16T09:30:19.901Z,0.30
2024-01-16T09:32:46.848Z,0.57
2024-01-16T09:35:13.715Z,1.77
2024-01-16T09:37:41.020Z,0.43
2024-01-16T09:40:08.523Z,0.40
2024-01-16T09:42:35.402Z,0.30
2024-01-16T09:45:06.002Z,0.77
2024-01-16T09:47:33.553Z,0.30
2024-01-16T09:50:04.527Z,0.60
2024-01-16T09:52:31.656Z,0.63
2024-01-16T09:54:58.340Z,0.60
2024-01-16T09:57:29.305Z,0.37
2024-01-16T09:59:57.940Z,0.87
2024-01-16T10:02:25.117Z,0.63
2024-01-16T10:04:51.849Z,1.43
2024-01-16T10:07:26.718Z,0.93
2024-01-16T10:09:53.445Z,0.90
2024-01-16T10:12:20.127Z,0.80
2024-01-16T10:14:48.416Z,0.90
2024-01-16T10:17:19.491Z,0.87
2024-01-16T10:19:58.026Z,1.03
2024-01-16T10:22:27.042Z,1.07
2024-01-16T10:25:17.453Z,0.63
2024-01-16T10:27:44.686Z,1.27
2024-01-16T10:30:11.614Z,0.30
2024-01-16T10:32:41.820Z,0.50
2024-01-16T10:35:10.002Z,0.77
2024-01-16T10:37:47.495Z,0.73
2024-01-16T10:40:24.485Z,0.40
2024-01-16T10:43:06.689Z,0.90
2024-01-16T10:45:35.917Z,0.80
2024-01-16T10:48:10.309Z,0.60
2024-01-16T10:50:39.922Z,0.40
2024-01-16T10:53:08.621Z,0.83
2024-01-16T10:55:47.006Z,0.20
2024-01-16T10:58:14.668Z,0.40
2024-01-16T11:00:44.950Z,0.77
2024-01-16T11:03:20.994Z,0.50
2024-01-16T11:05:48.843Z,0.97
2024-01-16T11:08:18.228Z,0.37
2024-01-16T11:10:45.819Z,0.77
2024-01-16T11:13:13.232Z,0.63
2024-01-16T11:15:41.298Z,0.43
2024-01-16T11:18:10.057Z,0.40
2024-01-16T11:20:56.486Z,0.50
2024-01-16T11:23:25.948Z,0.63
2024-01-16T11:25:52.684Z,0.40
2024-01-16T11:28:20.847Z,1.10
2024-01-16T11:30:49.000Z,0.53
2024-01-16T11:33:34.028Z,0.50
2024-01-16T11:36:01.829Z,0.87
2024-01-16T11:38:30.696Z,0.37
2024-01-16T11:40:57.702Z,1.07
2024-01-16T11:43:33.630Z,0.40
2024-01-16T11:46:10.735Z,0.93
2024-01-16T11:48:39.687Z,0.93
2024-01-16T11:51:26.938Z,1.10
2024-01-16T11:53:53.847Z,0.73
2024-01-16T11:56:30.883Z,0.73
2024-01-16T11:59:16.172Z,0.73
2024-01-16T12:01:47.086Z,0.37
2024-01-16T12:04:16.015Z,0.60
2024-01-16T12:06:42.803Z,0.63
2024-01-16T12:09:16.769Z,0.20
2024-01-16T12:11:46.574Z,0.30
2024-01-16T12:14:13.518Z,0.63
2024-01-16T12:16:40.341Z,0.83
2024-01-16T12:19:09.226Z,0.73
2024-01-16T12:21:40.497Z,0.40
2024-01-16T12:24:11.099Z,0.70
2024-01-16T12:26:40.450Z,1.03
2024-01-16T12:29:07.245Z,0.60
2024-01-16T12:31:33.905Z,0.50
2024-01-16T12:34:09.211Z,0.80
2024-01-16T12:36:37.500Z,0.73
2024-01-16T12:39:04.680Z,0.77
2024-01-16T12:41:43.461Z,0.73
2024-01-16T12:44:16.107Z,0.50
2024-01-16T12:47:05.037Z,0.80
2024-01-16T12:49:31.940Z,0.60
2024-01-16T12:52:19.313Z,0.63
2024-01-16T12:54:46.349Z,1.03
2024-01-16T12:57:18.511Z,0.50
2024-01-16T12:59:45.398Z,1.80
2024-01-16T13:02:21.027Z,0.70
2024-01-16T13:04:47.703Z,1.13
2024-01-16T13:07:18.119Z,1.23
2024-01-16T13:09:45.333Z,1.03
2024-01-16T13:12:20.740Z,0.97
2024-01-16T13:14:47.479Z,1.17
2024-01-16T13:17:14.247Z,0.77
2024-01-16T13:19:42.962Z,0.67
2024-01-16T13:22:09.650Z,1.10
2024-01-16T13:24:37.071Z,0.37
2024-01-16T13:27:05.446Z,1.07
2024-01-16T13:29:36.439Z,0.93
2024-01-16T13:32:03.207Z,0.73
2024-01-16T13:34:30.302Z,0.40
2024-01-16T13:37:14.739Z,0.43
2024-01-16T13:39:43.457Z,0.93
2024-01-16T13:42:10.176Z,0.37
2024-01-16T13:44:37.023Z,0.63
2024-01-16T13:47:08.812Z,0.30
2024-01-16T13:49:38.993Z,0.80
2024-01-16T13:52:06.122Z,1.00
2024-01-16T13:54:32.784Z,0.30
2024-01-16T13:57:06.274Z,0.87
2024-01-16T13:59:35.958Z,0.80
2024-01-16T14:02:09.659Z,0.50
2024-01-16T14:04:36.708Z,0.77
2024-01-16T14:07:12.182Z,0.63
2024-01-16T14:09:42.976Z,0.57
2024-01-16T14:12:10.444Z,0.53
2024-01-16T14:14:39.673Z,0.50
2024-01-16T14:17:06.882Z,0.30
2024-01-16T14:19:36.148Z,0.53
2024-01-16T14:22:03.183Z,0.40
2024-01-16T14:24:29.812Z,0.50
2024-01-16T14:26:59.229Z,0.60
2024-01-16T14:29:27.714Z,0.67
2024-01-16T14:31:56.791Z,0.70
2024-01-16T14:34:24.379Z,1.53
2024-01-16T14:36:51.459Z,0.57
2024-01-16T14:39:23.240Z,0.37
2024-01-16T14:41:50.106Z,1.20
2024-01-16T14:44:16.918Z,0.30
2024-01-16T14:46:48.651Z,1.37
2024-01-16T14:49:17.260Z,0.77
2024-01-16T14:51:44.163Z,0.17
2024-01-16T14:54:10.947Z,1.77
2024-01-16T14:56:37.753Z,0.60
2024-01-16T14:59:04.821Z,0.60
2024-01-16T15:01:31.626Z,0.57
2024-01-16T15:03:59.003Z,1.03
2024-01-16T15:06:27.789Z,1.57
2024-01-16T15:08:55.350Z,1.07
2024-01-16T15:11:22.666Z,0.87
2024-01-16T15:13:50.512Z,1.30
2024-01-16T15:16:17.993Z,1.57
2024-01-16T15:18:45.235Z,0.97
2024-01-16T15:21:12.225Z,1.07
2024-01-16T15:23:39.076Z,1.33
2024-01-16T15:26:06.003Z,1.30
2024-01-16T15:28:34.028Z,1.30
2024-01-16T15:31:07.566Z,0.80
2024-01-16T15:33:37.744Z,1.73
2024-01-16T15:36:05.280Z,0.63
2024-01-16T15:38:32.418Z,0.60
2024-01-16T15:40:59.680Z,1.60
2024-01-16T15:43:26.508Z,1.77
2024-01-16T15:45:53.220Z,1.40
2024-01-16T15:48:20.006Z,1.40
2024-01-16T15:50:46.994Z,1.37
2024-01-16T15:53:16.577Z,2.13
2024-01-16T15:55:43.872Z,0.97
2024-01-16T15:58:11.277Z,1.00
2024-01-16T16:00:38.112Z,2.07
2024-01-16T16:03:05.094Z,1.83
2024-01-16T16:05:31.876Z,0.87
2024-01-16T16:07:58.795Z,1.07
2024-01-16T16:10:27.632Z,2.03
2024-01-16T16:12:54.272Z,1.50
2024-01-16T16:15:20.931Z,1.57
2024-01-16T16:17:47.725Z,1.57
2024-01-16T16:20:15.330Z,1.17
2024-01-16T16:22:42.167Z,0.93
2024-01-16T16:25:08.983Z,0.83
2024-01-16T16:27:35.616Z,0.87
2024-01-16T16:30:02.429Z,0.90
2024-01-16T16:32:29.300Z,0.70
2024-01-16T16:34:56.064Z,1.83
2024-01-16T16:37:23.800Z,1.13
2024-01-16T16:39:50.463Z,0.87
2024-01-16T16:42:19.907Z,1.07
2024-01-16T16:44:47.286Z,0.70
2024-01-16T16:47:16.383Z,0.80
2024-01-16T16:49:43.138Z,0.60
2024-01-16T16:52:09.918Z,1.20
2024-01-16T16:54:36.720Z,1.07
2024-01-16T16:57:03.649Z,0.80
2024-01-16T16:59:31.123Z,0.80
2024-01-16T17:01:59.223Z,1.10
2024-01-16T17:04:26.125Z,1.17
2024-01-16T17:06:55.316Z,1.03
2024-01-16T17:09:22.497Z,1.07
2024-01-16T17:11:49.310Z,0.60
2024-01-16T17:14:16.988Z,0.80
2024-01-16T17:16:44.426Z,0.50
2024-01-16T17:19:11.906Z,1.30
2024-01-16T17:21:40.428Z,2.17
2024-01-16T17:24:07.695Z,0.60
2024-01-16T17:26:36.023Z,0.67
2024-01-16T17:29:02.903Z,1.10
2024-01-16T17:31:29.915Z,1.27
2024-01-16T17:33:58.724Z,1.37
2024-01-16T17:36:25.760Z,1.33
2024-01-16T17:38:57.090Z,1.07
2024-01-16T17:41:26.946Z,1.17
2024-01-16T17:43:54.912Z,0.80
2024-01-16T17:46:22.205Z,1.07
2024-01-16T17:48:49.679Z,0.90
2024-01-16T17:51:16.431Z,0.83
2024-01-16T17:53:48.577Z,0.73
2024-01-16T17:56:16.762Z,1.30
2024-01-16T17:58:44.103Z,0.57
2024-01-16T18:01:12.730Z,1.07
2024-01-16T18:03:44.614Z,0.90
2024-01-16T18:06:21.569Z,1.13
2024-01-16T18:08:49.979Z,1.10
2024-01-16T18:11:16.793Z,1.53
2024-01-16T18:13:44.054Z,1.07
2024-01-16T18:16:12.163Z,0.83
2024-01-16T18:18:39.877Z,0.70
2024-01-16T18:21:07.254Z,0.80
2024-01-16T18:23:35.608Z,1.07
2024-01-16T18:26:02.305Z,1.17
2024-01-16T18:28:28.978Z,1.03
2024-01-16T18:30:57.322Z,1.40
2024-01-16T18:33:24.289Z,0.67
2024-01-16T18:35:51.172Z,1.23
2024-01-16T18:38:20.545Z,0.30
2024-01-16T18:40:47.860Z,0.53
2024-01-16T18:43:15.974Z,0.90
2024-01-16T18:45:42.666Z,0.90
2024-01-16T18:48:09.511Z,1.07
2024-01-16T18:50:36.360Z,1.17
2024-01-16T18:53:03.071Z,0.77
2024-01-16T18:55:29.704Z,1.13
2024-01-16T18:58:00.836Z,0.93
2024-01-16T19:00:28.591Z,0.87
2024-01-16T19:02:55.413Z,1.23
2024-01-16T19:05:23.099Z,1.47
2024-01-16T19:07:50.960Z,1.37
2024-01-16T19:10:17.821Z,0.90
2024-01-16T19:12:47.436Z,0.70
2024-01-16T19:15:19.016Z,1.30
2024-01-16T19:17:51.383Z,1.10
2024-01-16T19:20:22.387Z,0.83
2024-01-16T19:22:50.890Z,1.23
2024-01-16T19:25:17.769Z,1.73
2024-01-16T19:27:48.818Z,0.60
2024-01-16T19:30:16.648Z,1.40
2024-01-16T19:32:44.903Z,1.63
2024-01-16T19:35:12.933Z,0.90
2024-01-16T19:37:41.089Z,1.30
2024-01-16T19:40:11.679Z,2.07
2024-01-16T19:42:41.406Z,1.33
2024-01-16T19:45:10.655Z,1.27
2024-01-16T19:47:42.805Z,0.90
2024-01-16T19:50:21.669Z,1.27
2024-01-16T19:52:51.482Z,1.00
2024-01-16T19:55:20.366Z,0.37
2024-01-16T19:57:47.237Z,1.13
2024-01-16T20:00:15.022Z,1.67
2024-01-16T20:02:43.745Z,0.70
2024-01-16T20:05:10.694Z,1.37
2024-01-16T20:07:38.734Z,0.90
2024-01-16T20:10:07.844Z,0.97
2024-01-16T20:12:40.023Z,0.87
2024-01-16T20:15:16.381Z,1.30
2024-01-16T20:17:44.199Z,1.57
2024-01-16T20:20:12.001Z,1.20
2024-01-16T20:22:38.841Z,0.67
2024-01-16T20:25:06.261Z,1.43
2024-01-16T20:27:33.498Z,1.03
2024-01-16T20:30:00.300Z,0.80
2024-01-16T20:32:27.323Z,1.20
2024-01-16T20:34:54.456Z,1.30
2024-01-16T20:37:21.167Z,1.53
2024-01-16T20:39:48.634Z,1.33
2024-01-16T20:42:15.322Z,1.27
2024-01-16T20:44:42.093Z,1.80
2024-01-16T20:47:11.472Z,1.30
2024-01-16T20:49:38.196Z,1.23
2024-01-16T20:52:05.832Z,1.40
2024-01-16T20:54:32.630Z,1.80
2024-01-16T20:56:59.641Z,2.90
2024-01-16T20:59:26.387Z,1.23
2024-01-16T21:01:53.101Z,1.83
2024-01-16T21:04:19.750Z,1.90
2024-01-16T21:06:46.832Z,1.20
2024-01-16T21:09:16.837Z,2.03
2024-01-16T21:11:44.757Z,1.63
2024-01-16T21:14:11.837Z,1.43
2024-01-16T21:16:38.642Z,2.13
2024-01-16T21:19:11.310Z,1.63
2024-01-16T21:21:38.072Z,0.80
2024-01-16T21:24:05.377Z,1.17
2024-01-16T21:26:32.058Z,1.23
2024-01-16T21:28:58.938Z,2.70
2024-01-16T21:31:25.638Z,1.13
2024-01-16T21:33:52.637Z,1.93
2024-01-16T21:36:19.745Z,0.77
2024-01-16T21:38:46.444Z,1.23
2024-01-16T21:41:13.498Z,1.07
2024-01-16T21:43:41.150Z,0.93
2024-01-16T21:46:07.888Z,1.33
2024-01-16T21:48:35.007Z,1.67
2024-01-16T21:51:01.965Z,1.77
2024-01-16T21:53:31.193Z,1.60
2024-01-16T21:55:57.936Z,1.20
2024-01-16T21:58:24.573Z,2.47
2024-01-16T22:00:51.520Z,1.70
2024-01-16T22:03:18.601Z,2.20
2024-01-16T22:05:46.019Z,1.17
2024-01-16T22:08:12.862Z,1.97
2024-01-16T22:10:42.929Z,0.93
2024-01-16T22:13:10.261Z,1.60
2024-01-16T22:15:37.887Z,1.90
2024-01-16T22:18:04.985Z,1.60
2024-01-16T22:20:33.532Z,1.53
2024-01-16T22:23:00.913Z,2.23
2024-01-16T22:25:29.416Z,1.27
2024-01-16T22:27:56.321Z,1.43
2024-01-16T22:30:23.147Z,1.37
2024-01-16T22:32:50.056Z,3.00
2024-01-16T22:35:19.665Z,1.50
2024-01-16T22:37:49.684Z,2.20
2024-01-16T22:40:19.613Z,1.47
2024-01-16T22:42:46.275Z,1.37
2024-01-16T22:45:16.194Z,1.17
2024-01-16T22:47:43.381Z,2.03
2024-01-16T22:50:10.684Z,1.53
2024-01-16T22:52:37.381Z,1.53
2024-01-16T22:55:05.153Z,1.57
2024-01-16T22:57:33.633Z,2.07
2024-01-16T23:00:00.820Z,1.47
2024-01-16T23:02:27.924Z,1.20
2024-01-16T23:04:54.736Z,0.93
2024-01-16T23:07:22.017Z,1.17
2024-01-16T23:09:48.812Z,1.77
2024-01-16T23:12:16.181Z,1.47
2024-01-16T23:14:43.532Z,2.63
2024-01-16T23:17:10.187Z,1.37
2024-01-16T23:19:36.911Z,1.00
2024-01-16T23:22:03.680Z,1.27
2024-01-16T23:24:31.664Z,1.70
2024-01-16T23:26:58.423Z,1.20
2024-01-16T23:29:25.134Z,1.13
2024-01-16T23:31:51.901Z,1.27
2024-01-16T23:34:19.056Z,1.17
2024-01-16T23:36:45.835Z,2.00
2024-01-16T23:39:12.628Z,1.63
2024-01-16T23:41:39.359Z,2.20
2024-01-16T23:44:06.033Z,1.00
2024-01-16T23:46:35.810Z,1.43
2024-01-16T23:49:02.667Z,1.77
2024-01-16T23:51:29.354Z,1.43
2024-01-16T23:53:56.282Z,1.57
2024-01-16T23:56:22.967Z,1.50
2024-01-16T23:58:50.326Z,2.03
